sensor_id;sensor_type;location;lat;lon;timestamp;P1;durP1;ratioP1;P2;durP2;ratioP2
16403;SDS011;8311;50.158;8.642;2023-07-09T00:02:39;10.65;;;5.97;;
16403;SDS011;8311;50.158;8.642;2023-07-09T00:05:33;8.40;;;5.80;;
16403;SDS011;8311;50.158;8.642;2023-07-09T00:08:26;7.78;;;4.57;;
16403;SDS011;8311;50.158;8.642;2023-07-09T00:11:21;10.07;;;5.50;;
16403;SDS011;8311;50.158;8.642;2023-07-09T00:14:15;8.90;;;4.95;;
16403;SDS011;8311;50.158;8.642;2023-07-09T00:17:10;7.88;;;4.32;;
16403;SDS011;8311;50.158;8.642;2023-07-09T00:20:05;7.72;;;4.55;;
16403;SDS011;8311;50.158;8.642;2023-07-09T00:23:06;6.30;;;4.10;;
16403;SDS011;8311;50.158;8.642;2023-07-09T00:25:59;7.43;;;4.50;;
16403;SDS011;8311;50.158;8.642;2023-07-09T00:28:56;8.30;;;4.68;;
16403;SDS011;8311;50.158;8.642;2023-07-09T00:31:48;7.50;;;4.28;;
16403;SDS011;8311;50.158;8.642;2023-07-09T00:34:42;7.03;;;4.32;;
16403;SDS011;8311;50.158;8.642;2023-07-09T00:37:39;8.98;;;5.07;;
16403;SDS011;8311;50.158;8.642;2023-07-09T00:40:34;8.00;;;4.78;;
16403;SDS011;8311;50.158;8.642;2023-07-09T00:43:30;6.80;;;3.90;;
16403;SDS011;8311;50.158;8.642;2023-07-09T00:50:09;7.45;;;4.38;;
16403;SDS011;8311;50.158;8.642;2023-07-09T00:53:13;7.90;;;4.28;;
16403;SDS011;8311;50.158;8.642;2023-07-09T00:56:12;8.48;;;4.65;;
16403;SDS011;8311;50.158;8.642;2023-07-09T00:59:12;6.95;;;4.38;;
16403;SDS011;8311;50.158;8.642;2023-07-09T01:02:10;7.65;;;5.03;;
16403;SDS011;8311;50.158;8.642;2023-07-09T01:05:03;8.57;;;4.93;;
16403;SDS011;8311;50.158;8.642;2023-07-09T01:07:58;9.15;;;4.72;;
16403;SDS011;8311;50.158;8.642;2023-07-09T01:10:50;8.07;;;4.60;;
16403;SDS011;8311;50.158;8.642;2023-07-09T01:13:45;7.15;;;4.30;;
16403;SDS011;8311;50.158;8.642;2023-07-09T01:16:38;10.80;;;5.05;;
16403;SDS011;8311;50.158;8.642;2023-07-09T01:19:38;7.50;;;4.47;;
16403;SDS011;8311;50.158;8.642;2023-07-09T01:22:36;7.65;;;4.70;;
16403;SDS011;8311;50.158;8.642;2023-07-09T01:25:30;7.45;;;5.18;;
16403;SDS011;8311;50.158;8.642;2023-07-09T01:28:22;9.10;;;5.53;;
16403;SDS011;8311;50.158;8.642;2023-07-09T01:31:16;8.32;;;5.28;;
16403;SDS011;8311;50.158;8.642;2023-07-09T01:34:10;7.40;;;5.22;;
16403;SDS011;8311;50.158;8.642;2023-07-09T01:37:03;9.05;;;5.40;;
16403;SDS011;8311;50.158;8.642;2023-07-09T01:39:58;7.60;;;4.65;;
16403;SDS011;8311;50.158;8.642;2023-07-09T01:42:51;8.43;;;5.35;;
16403;SDS011;8311;50.158;8.642;2023-07-09T01:45:43;8.05;;;4.80;;
16403;SDS011;8311;50.158;8.642;2023-07-09T01:48:41;9.00;;;4.60;;
16403;SDS011;8311;50.158;8.642;2023-07-09T01:51:34;7.70;;;4.25;;
16403;SDS011;8311;50.158;8.642;2023-07-09T01:54:29;9.40;;;4.65;;
16403;SDS011;8311;50.158;8.642;2023-07-09T01:57:24;6.80;;;3.85;;
16403;SDS011;8311;50.158;8.642;2023-07-09T02:00:24;6.97;;;4.03;;
16403;SDS011;8311;50.158;8.642;2023-07-09T02:03:17;6.88;;;4.72;;
16403;SDS011;8311;50.158;8.642;2023-07-09T02:06:10;7.13;;;4.15;;
16403;SDS011;8311;50.158;8.642;2023-07-09T02:09:06;7.60;;;4.40;;
16403;SDS011;8311;50.158;8.642;2023-07-09T02:12:00;7.70;;;4.20;;
16403;SDS011;8311;50.158;8.642;2023-07-09T02:14:55;7.32;;;4.63;;
16403;SDS011;8311;50.158;8.642;2023-07-09T02:17:49;11.00;;;4.55;;
16403;SDS011;8311;50.158;8.642;2023-07-09T02:20:45;6.22;;;4.13;;
16403;SDS011;8311;50.158;8.642;2023-07-09T02:23:38;6.65;;;4.03;;
16403;SDS011;8311;50.158;8.642;2023-07-09T02:26:30;6.35;;;3.90;;
16403;SDS011;8311;50.158;8.642;2023-07-09T02:29:24;6.57;;;3.53;;
16403;SDS011;8311;50.158;8.642;2023-07-09T02:32:19;6.75;;;3.97;;
16403;SDS011;8311;50.158;8.642;2023-07-09T02:35:15;6.35;;;3.40;;
16403;SDS011;8311;50.158;8.642;2023-07-09T02:38:08;9.02;;;4.47;;
16403;SDS011;8311;50.158;8.642;2023-07-09T02:41:01;7.50;;;4.05;;
16403;SDS011;8311;50.158;8.642;2023-07-09T02:43:53;6.80;;;4.57;;
16403;SDS011;8311;50.158;8.642;2023-07-09T02:46:47;8.18;;;4.82;;
16403;SDS011;8311;50.158;8.642;2023-07-09T02:49:41;7.30;;;4.85;;
16403;SDS011;8311;50.158;8.642;2023-07-09T02:52:34;9.15;;;4.57;;
16403;SDS011;8311;50.158;8.642;2023-07-09T02:55:28;8.02;;;5.00;;
16403;SDS011;8311;50.158;8.642;2023-07-09T02:58:22;7.10;;;4.40;;
16403;SDS011;8311;50.158;8.642;2023-07-09T03:01:15;8.52;;;4.18;;
16403;SDS011;8311;50.158;8.642;2023-07-09T03:04:09;7.13;;;4.30;;
16403;SDS011;8311;50.158;8.642;2023-07-09T03:07:04;6.82;;;4.13;;
16403;SDS011;8311;50.158;8.642;2023-07-09T03:09:57;8.82;;;4.13;;
16403;SDS011;8311;50.158;8.642;2023-07-09T03:12:51;9.38;;;4.10;;
16403;SDS011;8311;50.158;8.642;2023-07-09T03:15:53;7.20;;;4.57;;
16403;SDS011;8311;50.158;8.642;2023-07-09T03:18:47;7.35;;;4.28;;
16403;SDS011;8311;50.158;8.642;2023-07-09T03:21:41;7.18;;;3.95;;
16403;SDS011;8311;50.158;8.642;2023-07-09T03:24:35;7.32;;;4.13;;
16403;SDS011;8311;50.158;8.642;2023-07-09T03:27:29;7.97;;;4.45;;
16403;SDS011;8311;50.158;8.642;2023-07-09T03:30:23;7.70;;;4.32;;
16403;SDS011;8311;50.158;8.642;2023-07-09T03:33:16;7.00;;;4.20;;
16403;SDS011;8311;50.158;8.642;2023-07-09T03:36:10;7.35;;;4.20;;
16403;SDS011;8311;50.158;8.642;2023-07-09T03:39:04;7.47;;;3.80;;
16403;SDS011;8311;50.158;8.642;2023-07-09T03:42:00;9.23;;;4.70;;
16403;SDS011;8311;50.158;8.642;2023-07-09T03:44:53;10.40;;;4.25;;
16403;SDS011;8311;50.158;8.642;2023-07-09T03:47:46;10.45;;;4.50;;
16403;SDS011;8311;50.158;8.642;2023-07-09T03:50:39;6.90;;;3.67;;
16403;SDS011;8311;50.158;8.642;2023-07-09T03:53:33;9.23;;;4.05;;
16403;SDS011;8311;50.158;8.642;2023-07-09T03:56:26;9.07;;;4.63;;
16403;SDS011;8311;50.158;8.642;2023-07-09T03:59:20;7.40;;;4.07;;
16403;SDS011;8311;50.158;8.642;2023-07-09T04:02:14;8.60;;;4.30;;
16403;SDS011;8311;50.158;8.642;2023-07-09T04:05:09;7.22;;;4.50;;
16403;SDS011;8311;50.158;8.642;2023-07-09T04:08:03;7.97;;;4.35;;
16403;SDS011;8311;50.158;8.642;2023-07-09T04:10:58;7.50;;;4.40;;
16403;SDS011;8311;50.158;8.642;2023-07-09T04:13:52;6.93;;;4.30;;
16403;SDS011;8311;50.158;8.642;2023-07-09T04:16:46;6.80;;;4.30;;
16403;SDS011;8311;50.158;8.642;2023-07-09T04:19:39;7.90;;;4.47;;
16403;SDS011;8311;50.158;8.642;2023-07-09T04:22:33;7.70;;;4.10;;
16403;SDS011;8311;50.158;8.642;2023-07-09T04:25:26;6.72;;;3.92;;
16403;SDS011;8311;50.158;8.642;2023-07-09T04:28:19;6.68;;;3.90;;
16403;SDS011;8311;50.158;8.642;2023-07-09T04:31:12;8.43;;;4.10;;
16403;SDS011;8311;50.158;8.642;2023-07-09T04:34:06;6.28;;;4.20;;
16403;SDS011;8311;50.158;8.642;2023-07-09T04:37:00;8.00;;;4.20;;
16403;SDS011;8311;50.158;8.642;2023-07-09T04:39:53;6.40;;;3.85;;
16403;SDS011;8311;50.158;8.642;2023-07-09T04:42:46;6.45;;;4.20;;
16403;SDS011;8311;50.158;8.642;2023-07-09T04:45:39;6.50;;;4.25;;
16403;SDS011;8311;50.158;8.642;2023-07-09T04:48:32;7.05;;;3.70;;
16403;SDS011;8311;50.158;8.642;2023-07-09T04:51:27;6.45;;;4.00;;
16403;SDS011;8311;50.158;8.642;2023-07-09T04:54:20;8.57;;;4.22;;
16403;SDS011;8311;50.158;8.642;2023-07-09T04:57:14;7.28;;;4.18;;
16403;SDS011;8311;50.158;8.642;2023-07-09T05:00:08;5.95;;;3.90;;
16403;SDS011;8311;50.158;8.642;2023-07-09T05:03:03;7.63;;;4.18;;
16403;SDS011;8311;50.158;8.642;2023-07-09T05:05:57;6.80;;;4.03;;
16403;SDS011;8311;50.158;8.642;2023-07-09T05:08:51;7.80;;;4.60;;
16403;SDS011;8311;50.158;8.642;2023-07-09T05:11:45;6.75;;;4.00;;
16403;SDS011;8311;50.158;8.642;2023-07-09T05:14:39;7.82;;;4.20;;
16403;SDS011;8311;50.158;8.642;2023-07-09T05:17:33;6.72;;;4.25;;
16403;SDS011;8311;50.158;8.642;2023-07-09T05:20:26;6.53;;;4.30;;
16403;SDS011;8311;50.158;8.642;2023-07-09T05:23:20;7.57;;;4.55;;
16403;SDS011;8311;50.158;8.642;2023-07-09T05:26:14;9.65;;;4.50;;
16403;SDS011;8311;50.158;8.642;2023-07-09T05:29:08;8.52;;;4.82;;
16403;SDS011;8311;50.158;8.642;2023-07-09T05:32:01;11.02;;;4.50;;
16403;SDS011;8311;50.158;8.642;2023-07-09T05:34:53;7.63;;;4.53;;
16403;SDS011;8311;50.158;8.642;2023-07-09T05:37:50;9.30;;;4.45;;
16403;SDS011;8311;50.158;8.642;2023-07-09T05:40:43;9.93;;;4.85;;
16403;SDS011;8311;50.158;8.642;2023-07-09T05:43:39;9.48;;;4.68;;
16403;SDS011;8311;50.158;8.642;2023-07-09T05:46:33;9.35;;;5.03;;
16403;SDS011;8311;50.158;8.642;2023-07-09T05:49:30;8.57;;;5.05;;
16403;SDS011;8311;50.158;8.642;2023-07-09T05:52:23;7.10;;;4.10;;
16403;SDS011;8311;50.158;8.642;2023-07-09T05:55:17;8.32;;;4.82;;
16403;SDS011;8311;50.158;8.642;2023-07-09T05:58:10;7.90;;;4.28;;
16403;SDS011;8311;50.158;8.642;2023-07-09T06:01:04;6.90;;;4.63;;
16403;SDS011;8311;50.158;8.642;2023-07-09T06:03:58;6.68;;;4.20;;
16403;SDS011;8311;50.158;8.642;2023-07-09T06:06:51;11.68;;;4.90;;
16403;SDS011;8311;50.158;8.642;2023-07-09T06:09:45;7.85;;;3.72;;
16403;SDS011;8311;50.158;8.642;2023-07-09T06:12:39;7.50;;;4.03;;
16403;SDS011;8311;50.158;8.642;2023-07-09T06:15:32;7.57;;;3.90;;
16403;SDS011;8311;50.158;8.642;2023-07-09T06:18:28;10.10;;;4.00;;
16403;SDS011;8311;50.158;8.642;2023-07-09T06:21:22;13.02;;;4.45;;
16403;SDS011;8311;50.158;8.642;2023-07-09T06:24:17;11.05;;;4.15;;
16403;SDS011;8311;50.158;8.642;2023-07-09T06:27:14;17.08;;;5.10;;
16403;SDS011;8311;50.158;8.642;2023-07-09T06:30:07;12.35;;;5.40;;
16403;SDS011;8311;50.158;8.642;2023-07-09T06:33:01;12.20;;;5.50;;
16403;SDS011;8311;50.158;8.642;2023-07-09T06:35:56;12.30;;;5.82;;
16403;SDS011;8311;50.158;8.642;2023-07-09T06:38:52;10.05;;;4.57;;
16403;SDS011;8311;50.158;8.642;2023-07-09T06:41:45;12.88;;;5.13;;
16403;SDS011;8311;50.158;8.642;2023-07-09T06:44:40;11.98;;;4.97;;
16403;SDS011;8311;50.158;8.642;2023-07-09T06:47:33;11.77;;;5.40;;
16403;SDS011;8311;50.158;8.642;2023-07-09T06:50:26;13.35;;;6.25;;
16403;SDS011;8311;50.158;8.642;2023-07-09T06:53:22;12.48;;;5.60;;
16403;SDS011;8311;50.158;8.642;2023-07-09T06:56:16;11.32;;;5.70;;
16403;SDS011;8311;50.158;8.642;2023-07-09T06:59:09;10.30;;;5.38;;
16403;SDS011;8311;50.158;8.642;2023-07-09T07:02:02;10.30;;;4.88;;
16403;SDS011;8311;50.158;8.642;2023-07-09T07:04:56;9.05;;;5.28;;
16403;SDS011;8311;50.158;8.642;2023-07-09T07:07:49;8.88;;;4.90;;
16403;SDS011;8311;50.158;8.642;2023-07-09T07:10:43;12.75;;;5.70;;
16403;SDS011;8311;50.158;8.642;2023-07-09T07:13:39;11.73;;;5.30;;
16403;SDS011;8311;50.158;8.642;2023-07-09T07:16:34;9.75;;;4.75;;
16403;SDS011;8311;50.158;8.642;2023-07-09T07:19:27;9.23;;;5.00;;
16403;SDS011;8311;50.158;8.642;2023-07-09T07:22:20;10.55;;;5.45;;
16403;SDS011;8311;50.158;8.642;2023-07-09T07:25:14;9.43;;;5.25;;
16403;SDS011;8311;50.158;8.642;2023-07-09T07:28:09;8.00;;;5.22;;
16403;SDS011;8311;50.158;8.642;2023-07-09T07:31:03;8.25;;;4.90;;
16403;SDS011;8311;50.158;8.642;2023-07-09T07:33:59;10.77;;;5.22;;
16403;SDS011;8311;50.158;8.642;2023-07-09T07:36:52;7.97;;;5.28;;
16403;SDS011;8311;50.158;8.642;2023-07-09T07:39:45;7.70;;;4.45;;
16403;SDS011;8311;50.158;8.642;2023-07-09T07:42:39;8.48;;;5.43;;
16403;SDS011;8311;50.158;8.642;2023-07-09T07:45:35;7.75;;;5.13;;
16403;SDS011;8311;50.158;8.642;2023-07-09T07:48:28;8.18;;;4.60;;
16403;SDS011;8311;50.158;8.642;2023-07-09T07:51:21;7.32;;;5.28;;
16403;SDS011;8311;50.158;8.642;2023-07-09T07:54:14;8.30;;;4.93;;
16403;SDS011;8311;50.158;8.642;2023-07-09T07:57:09;7.57;;;5.05;;
16403;SDS011;8311;50.158;8.642;2023-07-09T08:00:04;7.82;;;5.15;;
16403;SDS011;8311;50.158;8.642;2023-07-09T08:02:59;8.45;;;4.93;;
16403;SDS011;8311;50.158;8.642;2023-07-09T08:05:53;9.10;;;4.72;;
16403;SDS011;8311;50.158;8.642;2023-07-09T08:08:46;8.40;;;4.75;;
16403;SDS011;8311;50.158;8.642;2023-07-09T08:11:39;6.82;;;4.88;;
16403;SDS011;8311;50.158;8.642;2023-07-09T08:14:32;7.63;;;4.63;;
16403;SDS011;8311;50.158;8.642;2023-07-09T08:17:25;10.00;;;5.35;;
16403;SDS011;8311;50.158;8.642;2023-07-09T08:20:20;7.88;;;4.88;;
16403;SDS011;8311;50.158;8.642;2023-07-09T08:23:14;10.48;;;5.22;;
16403;SDS011;8311;50.158;8.642;2023-07-09T08:26:07;10.38;;;5.82;;
16403;SDS011;8311;50.158;8.642;2023-07-09T08:29:01;8.77;;;4.72;;
16403;SDS011;8311;50.158;8.642;2023-07-09T08:31:54;8.45;;;5.53;;
16403;SDS011;8311;50.158;8.642;2023-07-09T08:34:47;8.93;;;4.88;;
16403;SDS011;8311;50.158;8.642;2023-07-09T08:38:01;7.93;;;5.05;;
16403;SDS011;8311;50.158;8.642;2023-07-09T08:40:57;8.70;;;5.13;;
16403;SDS011;8311;50.158;8.642;2023-07-09T08:43:55;9.30;;;5.60;;
16403;SDS011;8311;50.158;8.642;2023-07-09T08:46:59;7.47;;;4.72;;
16403;SDS011;8311;50.158;8.642;2023-07-09T08:49:56;7.82;;;4.63;;
16403;SDS011;8311;50.158;8.642;2023-07-09T08:52:52;8.00;;;5.30;;
16403;SDS011;8311;50.158;8.642;2023-07-09T08:55:50;8.30;;;5.00;;
16403;SDS011;8311;50.158;8.642;2023-07-09T08:58:43;7.28;;;4.80;;
16403;SDS011;8311;50.158;8.642;2023-07-09T09:01:38;10.27;;;5.85;;
16403;SDS011;8311;50.158;8.642;2023-07-09T09:04:36;8.07;;;4.50;;
16403;SDS011;8311;50.158;8.642;2023-07-09T09:07:37;7.97;;;4.90;;
16403;SDS011;8311;50.158;8.642;2023-07-09T09:10:34;8.15;;;5.10;;
16403;SDS011;8311;50.158;8.642;2023-07-09T09:13:34;8.98;;;5.32;;
16403;SDS011;8311;50.158;8.642;2023-07-09T09:16:31;7.43;;;4.45;;
16403;SDS011;8311;50.158;8.642;2023-07-09T09:19:30;7.10;;;4.60;;
16403;SDS011;8311;50.158;8.642;2023-07-09T09:22:29;7.90;;;5.13;;
16403;SDS011;8311;50.158;8.642;2023-07-09T09:25:37;9.95;;;5.47;;
16403;SDS011;8311;50.158;8.642;2023-07-09T09:28:36;8.13;;;4.97;;
16403;SDS011;8311;50.158;8.642;2023-07-09T09:31:29;9.63;;;5.03;;
16403;SDS011;8311;50.158;8.642;2023-07-09T09:34:24;8.57;;;5.15;;
16403;SDS011;8311;50.158;8.642;2023-07-09T09:37:26;9.07;;;4.97;;
16403;SDS011;8311;50.158;8.642;2023-07-09T09:40:21;7.25;;;4.50;;
16403;SDS011;8311;50.158;8.642;2023-07-09T09:43:17;6.80;;;4.30;;
16403;SDS011;8311;50.158;8.642;2023-07-09T09:46:20;7.40;;;4.68;;
16403;SDS011;8311;50.158;8.642;2023-07-09T09:49:15;9.27;;;5.22;;
16403;SDS011;8311;50.158;8.642;2023-07-09T09:52:10;9.13;;;4.95;;
16403;SDS011;8311;50.158;8.642;2023-07-09T09:55:09;8.05;;;5.13;;
16403;SDS011;8311;50.158;8.642;2023-07-09T09:58:11;8.50;;;4.65;;
16403;SDS011;8311;50.158;8.642;2023-07-09T10:01:11;8.45;;;5.03;;
16403;SDS011;8311;50.158;8.642;2023-07-09T10:04:10;7.38;;;4.38;;
16403;SDS011;8311;50.158;8.642;2023-07-09T10:07:10;7.85;;;5.07;;
16403;SDS011;8311;50.158;8.642;2023-07-09T10:10:12;10.15;;;5.13;;
16403;SDS011;8311;50.158;8.642;2023-07-09T10:13:10;8.55;;;5.03;;
16403;SDS011;8311;50.158;8.642;2023-07-09T10:16:17;8.32;;;4.63;;
16403;SDS011;8311;50.158;8.642;2023-07-09T10:19:16;9.02;;;4.72;;
16403;SDS011;8311;50.158;8.642;2023-07-09T10:22:20;11.88;;;5.13;;
16403;SDS011;8311;50.158;8.642;2023-07-09T10:25:23;8.02;;;5.07;;
16403;SDS011;8311;50.158;8.642;2023-07-09T10:31:53;7.85;;;4.93;;
16403;SDS011;8311;50.158;8.642;2023-07-09T10:34:54;8.75;;;5.20;;
16403;SDS011;8311;50.158;8.642;2023-07-09T10:37:59;10.65;;;5.63;;
16403;SDS011;8311;50.158;8.642;2023-07-09T10:41:04;10.18;;;6.28;;
16403;SDS011;8311;50.158;8.642;2023-07-09T10:44:18;11.48;;;6.38;;
16403;SDS011;8311;50.158;8.642;2023-07-09T10:47:20;14.48;;;7.20;;
16403;SDS011;8311;50.158;8.642;2023-07-09T10:50:24;12.32;;;6.38;;
16403;SDS011;8311;50.158;8.642;2023-07-09T10:53:26;11.73;;;6.50;;
16403;SDS011;8311;50.158;8.642;2023-07-09T10:56:25;11.30;;;6.07;;
16403;SDS011;8311;50.158;8.642;2023-07-09T10:59:21;9.25;;;6.20;;
16403;SDS011;8311;50.158;8.642;2023-07-09T11:02:21;8.82;;;5.93;;
16403;SDS011;8311;50.158;8.642;2023-07-09T11:05:17;11.32;;;6.50;;
16403;SDS011;8311;50.158;8.642;2023-07-09T11:08:12;12.73;;;6.97;;
16403;SDS011;8311;50.158;8.642;2023-07-09T11:11:09;10.35;;;6.40;;
16403;SDS011;8311;50.158;8.642;2023-07-09T11:14:15;10.27;;;6.85;;
16403;SDS011;8311;50.158;8.642;2023-07-09T11:17:16;10.50;;;6.55;;
16403;SDS011;8311;50.158;8.642;2023-07-09T11:20:17;8.95;;;6.25;;
16403;SDS011;8311;50.158;8.642;2023-07-09T11:23:18;10.35;;;6.15;;
16403;SDS011;8311;50.158;8.642;2023-07-09T11:26:21;9.88;;;6.43;;
16403;SDS011;8311;50.158;8.642;2023-07-09T11:29:17;11.48;;;5.97;;
16403;SDS011;8311;50.158;8.642;2023-07-09T11:32:17;12.18;;;6.65;;
16403;SDS011;8311;50.158;8.642;2023-07-09T11:35:20;11.75;;;7.13;;
16403;SDS011;8311;50.158;8.642;2023-07-09T11:38:15;10.15;;;6.05;;
16403;SDS011;8311;50.158;8.642;2023-07-09T11:41:22;11.35;;;6.20;;
16403;SDS011;8311;50.158;8.642;2023-07-09T11:44:20;10.95;;;6.55;;
16403;SDS011;8311;50.158;8.642;2023-07-09T11:47:17;10.48;;;6.60;;
16403;SDS011;8311;50.158;8.642;2023-07-09T11:50:20;10.35;;;6.07;;
16403;SDS011;8311;50.158;8.642;2023-07-09T11:53:22;10.25;;;5.82;;
16403;SDS011;8311;50.158;8.642;2023-07-09T11:56:23;7.70;;;5.30;;
16403;SDS011;8311;50.158;8.642;2023-07-09T11:59:17;10.90;;;5.57;;
16403;SDS011;8311;50.158;8.642;2023-07-09T12:02:15;9.40;;;6.00;;
16403;SDS011;8311;50.158;8.642;2023-07-09T12:05:10;7.90;;;5.75;;
16403;SDS011;8311;50.158;8.642;2023-07-09T12:08:05;9.52;;;5.47;;
16403;SDS011;8311;50.158;8.642;2023-07-09T12:11:01;9.85;;;5.93;;
16403;SDS011;8311;50.158;8.642;2023-07-09T12:14:00;9.60;;;5.20;;
16403;SDS011;8311;50.158;8.642;2023-07-09T12:16:54;10.13;;;6.25;;
16403;SDS011;8311;50.158;8.642;2023-07-09T12:19:50;8.07;;;5.45;;
16403;SDS011;8311;50.158;8.642;2023-07-09T12:22:44;10.90;;;6.30;;
16403;SDS011;8311;50.158;8.642;2023-07-09T12:25:38;7.43;;;5.43;;
16403;SDS011;8311;50.158;8.642;2023-07-09T12:28:32;8.77;;;5.53;;
16403;SDS011;8311;50.158;8.642;2023-07-09T12:31:27;9.13;;;5.78;;
16403;SDS011;8311;50.158;8.642;2023-07-09T12:34:21;7.50;;;5.47;;
16403;SDS011;8311;50.158;8.642;2023-07-09T12:37:20;10.13;;;5.38;;
16403;SDS011;8311;50.158;8.642;2023-07-09T12:40:16;9.07;;;5.40;;
16403;SDS011;8311;50.158;8.642;2023-07-09T12:43:13;8.63;;;5.70;;
16403;SDS011;8311;50.158;8.642;2023-07-09T12:46:19;9.88;;;5.75;;
16403;SDS011;8311;50.158;8.642;2023-07-09T12:49:20;7.95;;;5.03;;
16403;SDS011;8311;50.158;8.642;2023-07-09T12:52:17;8.27;;;5.35;;
16403;SDS011;8311;50.158;8.642;2023-07-09T12:55:18;7.07;;;4.70;;
16403;SDS011;8311;50.158;8.642;2023-07-09T12:58:14;7.90;;;5.22;;
16403;SDS011;8311;50.158;8.642;2023-07-09T13:01:14;7.93;;;5.30;;
16403;SDS011;8311;50.158;8.642;2023-07-09T13:04:09;6.70;;;5.03;;
16403;SDS011;8311;50.158;8.642;2023-07-09T13:07:04;7.38;;;4.72;;
16403;SDS011;8311;50.158;8.642;2023-07-09T13:10:15;7.28;;;4.72;;
16403;SDS011;8311;50.158;8.642;2023-07-09T13:13:11;7.85;;;5.28;;
16403;SDS011;8311;50.158;8.642;2023-07-09T13:16:06;7.43;;;4.95;;
16403;SDS011;8311;50.158;8.642;2023-07-09T13:18:59;7.68;;;5.15;;
16403;SDS011;8311;50.158;8.642;2023-07-09T13:21:54;7.05;;;4.88;;
16403;SDS011;8311;50.158;8.642;2023-07-09T13:24:47;6.57;;;4.50;;
16403;SDS011;8311;50.158;8.642;2023-07-09T13:27:40;7.85;;;4.25;;
16403;SDS011;8311;50.158;8.642;2023-07-09T13:30:34;7.28;;;5.05;;
16403;SDS011;8311;50.158;8.642;2023-07-09T13:33:28;7.53;;;4.80;;
16403;SDS011;8311;50.158;8.642;2023-07-09T13:36:22;7.22;;;4.88;;
16403;SDS011;8311;50.158;8.642;2023-07-09T13:39:17;6.93;;;4.38;;
16403;SDS011;8311;50.158;8.642;2023-07-09T13:42:12;8.10;;;5.25;;
16403;SDS011;8311;50.158;8.642;2023-07-09T13:45:15;6.97;;;4.50;;
16403;SDS011;8311;50.158;8.642;2023-07-09T13:48:14;6.80;;;4.40;;
16403;SDS011;8311;50.158;8.642;2023-07-09T13:51:14;6.40;;;4.28;;
16403;SDS011;8311;50.158;8.642;2023-07-09T13:54:14;6.72;;;4.63;;
16403;SDS011;8311;50.158;8.642;2023-07-09T13:57:12;6.93;;;4.78;;
16403;SDS011;8311;50.158;8.642;2023-07-09T14:00:08;7.07;;;5.18;;
16403;SDS011;8311;50.158;8.642;2023-07-09T14:03:04;6.55;;;4.75;;
16403;SDS011;8311;50.158;8.642;2023-07-09T14:06:08;7.07;;;4.50;;
16403;SDS011;8311;50.158;8.642;2023-07-09T14:09:02;5.70;;;4.03;;
16403;SDS011;8311;50.158;8.642;2023-07-09T14:11:59;6.68;;;4.10;;
16403;SDS011;8311;50.158;8.642;2023-07-09T14:14:53;6.50;;;4.57;;
16403;SDS011;8311;50.158;8.642;2023-07-09T14:17:49;7.47;;;4.45;;
16403;SDS011;8311;50.158;8.642;2023-07-09T14:20:43;6.97;;;4.75;;
16403;SDS011;8311;50.158;8.642;2023-07-09T14:23:37;5.95;;;3.83;;
16403;SDS011;8311;50.158;8.642;2023-07-09T14:26:30;5.10;;;3.70;;
16403;SDS011;8311;50.158;8.642;2023-07-09T14:29:25;6.50;;;4.50;;
16403;SDS011;8311;50.158;8.642;2023-07-09T14:32:30;7.03;;;4.30;;
16403;SDS011;8311;50.158;8.642;2023-07-09T14:35:25;5.78;;;4.10;;
16403;SDS011;8311;50.158;8.642;2023-07-09T14:38:21;6.20;;;4.00;;
16403;SDS011;8311;50.158;8.642;2023-07-09T14:41:18;5.88;;;3.75;;
16403;SDS011;8311;50.158;8.642;2023-07-09T14:44:23;7.22;;;4.50;;
16403;SDS011;8311;50.158;8.642;2023-07-09T14:47:21;6.40;;;4.57;;
16403;SDS011;8311;50.158;8.642;2023-07-09T14:50:14;5.63;;;3.88;;
16403;SDS011;8311;50.158;8.642;2023-07-09T14:53:15;7.72;;;4.35;;
16403;SDS011;8311;50.158;8.642;2023-07-09T14:56:13;6.85;;;3.78;;
16403;SDS011;8311;50.158;8.642;2023-07-09T14:59:06;6.18;;;4.45;;
16403;SDS011;8311;50.158;8.642;2023-07-09T15:02:02;5.97;;;4.07;;
16403;SDS011;8311;50.158;8.642;2023-07-09T15:05:03;7.05;;;4.40;;
16403;SDS011;8311;50.158;8.642;2023-07-09T15:07:58;6.65;;;4.30;;
16403;SDS011;8311;50.158;8.642;2023-07-09T15:10:53;6.97;;;4.28;;
16403;SDS011;8311;50.158;8.642;2023-07-09T15:13:47;7.60;;;4.32;;
16403;SDS011;8311;50.158;8.642;2023-07-09T15:16:40;7.13;;;4.30;;
16403;SDS011;8311;50.158;8.642;2023-07-09T15:19:36;8.30;;;4.82;;
16403;SDS011;8311;50.158;8.642;2023-07-09T15:22:30;6.80;;;4.45;;
16403;SDS011;8311;50.158;8.642;2023-07-09T15:25:26;7.60;;;4.32;;
16403;SDS011;8311;50.158;8.642;2023-07-09T15:28:21;8.45;;;4.32;;
16403;SDS011;8311;50.158;8.642;2023-07-09T15:31:16;7.30;;;4.43;;
16403;SDS011;8311;50.158;8.642;2023-07-09T15:34:09;6.22;;;3.58;;
16403;SDS011;8311;50.158;8.642;2023-07-09T15:37:08;7.57;;;4.05;;
16403;SDS011;8311;50.158;8.642;2023-07-09T15:40:13;8.95;;;4.57;;
16403;SDS011;8311;50.158;8.642;2023-07-09T15:43:10;8.13;;;4.68;;
16403;SDS011;8311;50.158;8.642;2023-07-09T15:46:04;6.95;;;4.15;;
16403;SDS011;8311;50.158;8.642;2023-07-09T15:48:57;6.00;;;4.00;;
16403;SDS011;8311;50.158;8.642;2023-07-09T15:51:50;7.78;;;4.40;;
16403;SDS011;8311;50.158;8.642;2023-07-09T15:54:45;6.82;;;3.78;;
16403;SDS011;8311;50.158;8.642;2023-07-09T15:57:38;6.75;;;4.40;;
16403;SDS011;8311;50.158;8.642;2023-07-09T16:00:33;6.20;;;3.72;;
16403;SDS011;8311;50.158;8.642;2023-07-09T16:03:29;7.13;;;4.20;;
16403;SDS011;8311;50.158;8.642;2023-07-09T16:06:22;7.05;;;4.15;;
16403;SDS011;8311;50.158;8.642;2023-07-09T16:09:15;5.90;;;4.03;;
16403;SDS011;8311;50.158;8.642;2023-07-09T16:12:11;6.60;;;3.80;;
16403;SDS011;8311;50.158;8.642;2023-07-09T16:15:05;6.35;;;3.78;;
16403;SDS011;8311;50.158;8.642;2023-07-09T16:18:01;6.55;;;4.15;;
16403;SDS011;8311;50.158;8.642;2023-07-09T16:21:01;5.60;;;4.03;;
16403;SDS011;8311;50.158;8.642;2023-07-09T16:23:54;6.90;;;4.15;;
16403;SDS011;8311;50.158;8.642;2023-07-09T16:26:48;5.20;;;3.47;;
16403;SDS011;8311;50.158;8.642;2023-07-09T16:29:43;6.85;;;4.00;;
16403;SDS011;8311;50.158;8.642;2023-07-09T16:32:36;5.43;;;3.67;;
16403;SDS011;8311;50.158;8.642;2023-07-09T16:35:31;5.70;;;3.97;;
16403;SDS011;8311;50.158;8.642;2023-07-09T16:38:24;6.25;;;3.92;;
16403;SDS011;8311;50.158;8.642;2023-07-09T16:41:18;6.22;;;3.80;;
16403;SDS011;8311;50.158;8.642;2023-07-09T16:44:11;5.00;;;3.60;;
16403;SDS011;8311;50.158;8.642;2023-07-09T16:47:07;6.55;;;3.95;;
16403;SDS011;8311;50.158;8.642;2023-07-09T16:50:08;5.97;;;3.65;;
16403;SDS011;8311;50.158;8.642;2023-07-09T16:53:04;5.30;;;3.55;;
16403;SDS011;8311;50.158;8.642;2023-07-09T16:56:03;5.78;;;3.67;;
16403;SDS011;8311;50.158;8.642;2023-07-09T16:58:57;5.88;;;3.78;;
16403;SDS011;8311;50.158;8.642;2023-07-09T17:01:50;6.82;;;4.20;;
16403;SDS011;8311;50.158;8.642;2023-07-09T17:04:45;5.30;;;3.33;;
16403;SDS011;8311;50.158;8.642;2023-07-09T17:07:38;5.85;;;3.70;;
16403;SDS011;8311;50.158;8.642;2023-07-09T17:10:31;5.35;;;3.45;;
16403;SDS011;8311;50.158;8.642;2023-07-09T17:13:25;5.97;;;3.70;;
16403;SDS011;8311;50.158;8.642;2023-07-09T17:16:19;5.93;;;3.50;;
16403;SDS011;8311;50.158;8.642;2023-07-09T17:19:13;5.40;;;3.47;;
16403;SDS011;8311;50.158;8.642;2023-07-09T17:22:13;5.75;;;3.50;;
16403;SDS011;8311;50.158;8.642;2023-07-09T17:25:26;5.45;;;3.28;;
16403;SDS011;8311;50.158;8.642;2023-07-09T17:28:22;4.63;;;3.33;;
16403;SDS011;8311;50.158;8.642;2023-07-09T17:31:17;5.05;;;3.35;;
16403;SDS011;8311;50.158;8.642;2023-07-09T17:34:09;5.85;;;3.17;;
16403;SDS011;8311;50.158;8.642;2023-07-09T17:37:03;5.20;;;3.63;;
16403;SDS011;8311;50.158;8.642;2023-07-09T17:39:59;4.97;;;3.50;;
16403;SDS011;8311;50.158;8.642;2023-07-09T17:42:52;5.60;;;3.28;;
16403;SDS011;8311;50.158;8.642;2023-07-09T17:45:47;4.55;;;2.97;;
16403;SDS011;8311;50.158;8.642;2023-07-09T17:48:41;5.53;;;3.45;;
16403;SDS011;8311;50.158;8.642;2023-07-09T17:51:34;5.93;;;3.60;;
16403;SDS011;8311;50.158;8.642;2023-07-09T17:54:27;5.90;;;3.38;;
16403;SDS011;8311;50.158;8.642;2023-07-09T17:57:23;4.72;;;3.20;;
16403;SDS011;8311;50.158;8.642;2023-07-09T18:00:20;5.03;;;3.22;;
16403;SDS011;8311;50.158;8.642;2023-07-09T18:03:14;5.50;;;3.40;;